Time;durP1;ratioP1;P1;durP2;ratioP2;P2;SDS_P1;SDS_P2;PMS_P1;PMS_P2;Temp;Humidity;BMP_temperature;BMP_pressure;BME280_temperature;BME280_humidity;BME280_pressure;Samples;Min_cycle;Max_cycle;Signal;HPM_P1;HPM_P2
2023/10/15 00:00:18;;;;;;;8.63;2.92;;;7.50;99.90;;;;;;5030680;28;20800;-71
2023/10/15 00:02:51;;;;;;;8.45;3.42;;;7.60;99.90;;;;;;5011706;28;20030;-71
2023/10/15 00:05:25;;;;;;;7.82;3.00;;;7.50;99.90;;;;;;5020074;28;20147;-69
2023/10/15 00:07:51;;;;;;;9.27;2.63;;;7.40;99.90;;;;;;5030974;28;20120;-71
2023/10/15 00:10:25;;;;;;;6.75;2.97;;;7.30;99.90;;;;;;5030405;28;20037;-70
2023/10/15 00:12:53;;;;;;;8.05;2.80;;;7.40;99.90;;;;;;5010946;28;20879;-71
2023/10/15 00:15:20;;;;;;;12.45;3.50;;;7.50;99.90;;;;;;5018198;28;20021;-71
2023/10/15 00:17:51;;;;;;;15.50;3.40;;;7.50;99.90;;;;;;5030545;28;20394;-70
2023/10/15 00:20:18;;;;;;;8.38;3.10;;;7.60;99.90;;;;;;5030197;28;20048;-69
2023/10/15 00:22:45;;;;;;;7.10;3.03;;;7.60;99.90;;;;;;5029590;28;20494;-72
2023/10/15 00:25:14;;;;;;;5.97;2.72;;;7.50;99.90;;;;;;5030196;28;20033;-71
2023/10/15 00:27:54;;;;;;;7.93;3.25;;;7.40;99.90;;;;;;5029759;28;20025;-72
2023/10/15 00:30:21;;;;;;;5.57;1.90;;;7.40;99.90;;;;;;5029728;28;20102;-71
2023/10/15 00:32:52;;;;;;;12.10;3.15;;;7.40;99.90;;;;;;5025654;28;20044;-71
2023/10/15 00:35:21;;;;;;;7.43;2.70;;;7.30;99.90;;;;;;5023378;28;20041;-69
2023/10/15 00:37:56;;;;;;;9.13;3.00;;;7.30;99.90;;;;;;5010451;28;20121;-72
2023/10/15 00:40:26;;;;;;;6.97;3.05;;;7.40;99.90;;;;;;5014801;28;20450;-72
2023/10/15 00:42:52;;;;;;;5.83;2.57;;;7.20;99.90;;;;;;5014104;28;20125;-71
2023/10/15 00:45:19;;;;;;;7.15;3.05;;;7.30;99.90;;;;;;5010048;28;20472;-71
2023/10/15 00:48:00;;;;;;;12.93;3.92;;;7.20;99.90;;;;;;5009859;28;20036;-72
2023/10/15 00:50:31;;;;;;;11.77;3.30;;;7.10;99.90;;;;;;5013224;28;20040;-72
2023/10/15 00:53:04;;;;;;;8.82;2.90;;;7.10;99.90;;;;;;5024416;28;20109;-72
2023/10/15 00:55:35;;;;;;;7.72;2.97;;;7.00;99.90;;;;;;5028767;28;20479;-71
2023/10/15 00:58:07;;;;;;;6.45;2.97;;;7.00;99.90;;;;;;5020148;28;20041;-70
2023/10/15 01:03:19;;;;;;;10.63;3.15;;;7.00;99.90;;;;;;5015709;28;20518;-72
2023/10/15 01:05:53;;;;;;;8.40;3.13;;;6.90;99.90;;;;;;5028556;28;20228;-71
2023/10/15 01:08:34;;;;;;;11.32;3.95;;;6.70;99.90;;;;;;5029579;28;20075;-70
2023/10/15 01:11:08;;;;;;;8.55;3.35;;;6.70;99.90;;;;;;5029281;28;20068;-72
2023/10/15 01:13:35;;;;;;;17.70;3.47;;;6.70;99.90;;;;;;5022244;28;20164;-72
2023/10/15 01:16:05;;;;;;;14.07;3.97;;;6.70;99.90;;;;;;5009311;28;20041;-71
2023/10/15 01:18:30;;;;;;;11.32;3.47;;;6.80;99.90;;;;;;5008933;28;20502;-72
2023/10/15 01:21:01;;;;;;;10.63;4.15;;;6.70;99.90;;;;;;5021859;28;20116;-72
2023/10/15 01:26:26;;;;;;;12.95;4.20;;;6.70;99.90;;;;;;5028822;28;20033;-71
2023/10/15 01:28:52;;;;;;;10.68;4.05;;;6.70;99.90;;;;;;5029171;28;20030;-72
2023/10/15 01:31:18;;;;;;;12.75;3.72;;;6.60;99.90;;;;;;5028476;28;20041;-72
2023/10/15 01:33:46;;;;;;;18.10;4.65;;;6.60;99.90;;;;;;5028254;28;20900;-72
2023/10/15 01:36:27;;;;;;;11.32;4.45;;;6.50;99.90;;;;;;5028859;28;20033;-72
2023/10/15 01:38:57;;;;;;;13.98;4.20;;;6.50;99.90;;;;;;5028933;28;20030;-72
2023/10/15 01:41:25;;;;;;;14.90;4.00;;;6.40;99.90;;;;;;5027661;28;20033;-71
2023/10/15 01:43:53;;;;;;;11.68;3.97;;;6.30;99.90;;;;;;5025162;28;20038;-72
2023/10/15 01:47:07;;;;;;;12.70;4.75;;;6.30;99.90;;;;;;5028706;28;20059;-72
2023/10/15 01:49:07;;;;;;;9.88;3.78;;;6.40;99.90;;;;;;5027534;28;20041;-72
2023/10/15 01:51:40;;;;;;;16.45;4.40;;;6.40;99.90;;;;;;5028030;28;20044;-72
2023/10/15 01:54:09;;;;;;;11.88;4.00;;;6.50;99.90;;;;;;5028339;28;20033;-72
2023/10/15 01:56:36;;;;;;;14.43;4.53;;;6.60;99.90;;;;;;5028047;28;20029;-72
2023/10/15 01:59:08;;;;;;;12.20;4.35;;;6.60;99.90;;;;;;5028550;28;20490;-71
2023/10/15 02:01:37;;;;;;;11.85;4.10;;;6.70;99.90;;;;;;5027625;28;20493;-71
2023/10/15 02:04:04;;;;;;;15.82;4.72;;;6.60;99.90;;;;;;5028509;28;20026;-73
2023/10/15 02:06:35;;;;;;;12.93;4.10;;;6.70;99.90;;;;;;5017306;28;20096;-72
2023/10/15 02:09:07;;;;;;;14.50;4.68;;;6.70;99.90;;;;;;5019619;28;20068;-72
2023/10/15 02:11:40;;;;;;;13.80;3.85;;;6.80;99.90;;;;;;5008153;28;20048;-71
2023/10/15 02:14:08;;;;;;;13.68;3.88;;;6.80;99.90;;;;;;5027320;28;20033;-71
2023/10/15 02:16:37;;;;;;;16.83;4.45;;;6.70;99.90;;;;;;5027726;28;20108;-72
2023/10/15 02:19:07;;;;;;;15.15;3.83;;;6.80;99.90;;;;;;5028239;28;20095;-72
2023/10/15 02:21:34;;;;;;;13.63;3.72;;;6.80;99.90;;;;;;5027509;28;20060;-72
2023/10/15 02:24:08;;;;;;;12.40;3.88;;;6.90;99.90;;;;;;5028402;28;20029;-72
2023/10/15 02:26:35;;;;;;;8.73;3.80;;;6.90;99.90;;;;;;5027193;28;20037;-72
2023/10/15 02:31:52;;;;;;;10.65;3.60;;;6.90;99.90;;;;;;5019091;28;20046;-72
2023/10/15 02:34:24;;;;;;;6.32;3.10;;;6.90;99.90;;;;;;5026243;28;20024;-71
2023/10/15 02:36:50;;;;;;;11.23;3.60;;;6.90;99.90;;;;;;5027683;28;20025;-71
2023/10/15 02:39:15;;;;;;;11.70;3.40;;;6.90;99.90;;;;;;5028247;28;20025;-71
2023/10/15 02:41:41;;;;;;;11.40;3.80;;;7.00;99.90;;;;;;5021879;28;20064;-72
2023/10/15 02:44:14;;;;;;;13.25;4.47;;;7.00;99.90;;;;;;5028284;28;20030;-71
2023/10/15 02:46:47;;;;;;;13.95;3.67;;;7.00;99.90;;;;;;5027200;28;20462;-73
2023/10/15 02:49:15;;;;;;;9.00;3.20;;;7.00;99.90;;;;;;5028294;28;20032;-72
2023/10/15 02:51:42;;;;;;;8.68;3.78;;;7.00;99.90;;;;;;5027275;28;20171;-72
2023/10/15 02:56:59;;;;;;;11.68;3.50;;;6.90;99.90;;;;;;5011922;28;20080;-72
2023/10/15 02:59:29;;;;;;;8.88;3.60;;;6.90;99.90;;;;;;5024928;28;20034;-71
2023/10/15 03:01:56;;;;;;;12.40;3.55;;;7.00;99.90;;;;;;5008313;28;20037;-72
2023/10/15 03:04:37;;;;;;;11.57;3.58;;;7.10;99.90;;;;;;5007912;28;20097;-72
2023/10/15 03:10:06;;;;;;;14.95;3.47;;;7.20;99.90;;;;;;5020133;28;20060;-72
2023/10/15 03:12:33;;;;;;;9.52;3.28;;;7.20;99.90;;;;;;5021702;28;20037;-71
2023/10/15 03:15:00;;;;;;;12.80;3.05;;;7.20;99.90;;;;;;5027962;28;20033;-72
2023/10/15 03:17:29;;;;;;;8.90;3.30;;;7.20;99.90;;;;;;5026151;28;20025;-71
2023/10/15 03:19:56;;;;;;;10.52;3.05;;;7.20;99.90;;;;;;5026440;28;20029;-73
2023/10/15 03:22:24;;;;;;;11.80;3.33;;;7.20;99.90;;;;;;5028000;28;20475;-72
2023/10/15 03:24:50;;;;;;;8.80;3.50;;;7.30;99.90;;;;;;5027108;28;20037;-72
2023/10/15 03:27:22;;;;;;;10.13;3.63;;;7.30;99.90;;;;;;5021205;28;20026;-72
2023/10/15 03:29:47;;;;;;;9.15;3.40;;;7.40;99.90;;;;;;5007108;28;20057;-72
2023/10/15 03:32:13;;;;;;;11.10;3.97;;;7.40;99.90;;;;;;5007777;28;20041;-72
2023/10/15 03:34:59;;;;;;;11.25;3.25;;;7.50;99.90;;;;;;5007052;28;20029;-71
2023/10/15 03:37:27;;;;;;;7.85;2.83;;;7.50;99.90;;;;;;5008055;28;20073;-72
2023/10/15 03:39:56;;;;;;;8.25;3.00;;;7.50;99.90;;;;;;5010634;28;20026;-73
2023/10/15 03:42:28;;;;;;;11.23;3.00;;;7.60;99.90;;;;;;5028317;28;20033;-71
2023/10/15 03:45:07;;;;;;;12.18;3.25;;;7.60;99.90;;;;;;5030837;28;20049;-71
2023/10/15 03:47:32;;;;;;;10.48;3.95;;;7.60;99.90;;;;;;5030551;28;20021;-71
2023/10/15 03:50:06;;;;;;;9.30;2.97;;;7.70;99.90;;;;;;5030822;28;20033;-71
2023/10/15 03:52:34;;;;;;;9.40;2.85;;;7.70;99.90;;;;;;5014295;28;20026;-69
2023/10/15 03:54:59;;;;;;;12.35;3.33;;;7.70;99.90;;;;;;5011302;28;20026;-72
2023/10/15 03:57:28;;;;;;;12.63;3.47;;;7.70;99.90;;;;;;5030487;28;20030;-71
2023/10/15 03:59:55;;;;;;;6.93;2.78;;;7.60;99.90;;;;;;5030315;28;20076;-71
2023/10/15 04:02:22;;;;;;;10.57;3.10;;;7.70;99.90;;;;;;5030772;28;20056;-72
2023/10/15 04:05:00;;;;;;;8.30;3.03;;;7.70;99.90;;;;;;5009873;28;20170;-71
2023/10/15 04:07:27;;;;;;;8.18;3.03;;;7.60;99.90;;;;;;5030816;28;20043;-72
2023/10/15 04:09:52;;;;;;;11.25;3.00;;;7.40;99.90;;;;;;5029718;28;20860;-71
2023/10/15 04:12:18;;;;;;;12.65;3.47;;;7.40;99.90;;;;;;5030493;28;20116;-72
2023/10/15 04:14:45;;;;;;;10.13;3.25;;;7.40;99.90;;;;;;5029704;28;20025;-72
2023/10/15 04:17:11;;;;;;;12.80;3.30;;;7.50;99.90;;;;;;5030312;28;20030;-72
2023/10/15 04:19:37;;;;;;;12.27;3.28;;;7.50;99.90;;;;;;5029623;28;20059;-70
2023/10/15 04:22:14;;;;;;;11.93;2.92;;;7.60;99.90;;;;;;5030547;28;20037;-71
2023/10/15 04:24:49;;;;;;;8.13;3.50;;;7.60;99.90;;;;;;5029526;28;20087;-70
2023/10/15 04:27:16;;;;;;;7.55;3.45;;;7.60;99.90;;;;;;5028072;28;20040;-70
2023/10/15 04:29:54;;;;;;;9.85;3.25;;;7.60;99.90;;;;;;5029597;28;20037;-72
2023/10/15 04:32:45;;;;;;;7.93;3.53;;;7.60;99.90;;;;;;5030198;28;20041;-70
2023/10/15 04:35:17;;;;;;;10.73;2.63;;;7.60;99.90;;;;;;5030171;28;20040;-71
2023/10/15 04:37:44;;;;;;;6.47;3.15;;;7.50;99.90;;;;;;5019470;28;20049;-71
2023/10/15 04:40:11;;;;;;;12.85;3.00;;;7.50;99.90;;;;;;5017194;28;20041;-71
2023/10/15 04:42:43;;;;;;;8.13;3.38;;;7.40;99.90;;;;;;5028414;28;20036;-72
2023/10/15 04:45:20;;;;;;;9.73;2.70;;;7.40;99.90;;;;;;5029987;28;20386;-72
2023/10/15 04:47:52;;;;;;;9.88;3.38;;;7.30;99.90;;;;;;5029393;28;20025;-72
2023/10/15 04:50:19;;;;;;;8.20;2.90;;;7.40;99.90;;;;;;5028568;28;20429;-72
2023/10/15 04:52:44;;;;;;;12.07;3.25;;;7.40;99.90;;;;;;5029091;28;20120;-72
2023/10/15 04:55:13;;;;;;;7.22;3.25;;;7.30;99.90;;;;;;5029036;28;20172;-71
2023/10/15 04:57:39;;;;;;;7.43;2.85;;;7.40;99.90;;;;;;5029167;28;20070;-72
2023/10/15 05:00:06;;;;;;;15.60;3.20;;;7.30;99.90;;;;;;5025983;28;20024;-72
2023/10/15 05:02:35;;;;;;;7.18;3.22;;;7.20;99.90;;;;;;5015490;28;20083;-70
2023/10/15 05:05:05;;;;;;;10.65;3.40;;;7.20;99.90;;;;;;5029034;28;20049;-72
2023/10/15 05:07:31;;;;;;;9.32;2.95;;;7.20;99.90;;;;;;5029714;28;20042;-73
2023/10/15 05:09:58;;;;;;;10.82;3.05;;;7.20;99.90;;;;;;5027856;28;20521;-71
2023/10/15 05:12:23;;;;;;;10.40;3.22;;;7.30;99.90;;;;;;5026224;28;20045;-72
2023/10/15 05:14:49;;;;;;;10.63;3.25;;;7.30;99.90;;;;;;5008848;28;20406;-72
2023/10/15 05:17:15;;;;;;;12.93;3.35;;;7.30;99.90;;;;;;5009855;28;20032;-71
2023/10/15 05:19:42;;;;;;;9.52;3.30;;;7.30;99.90;;;;;;5008801;28;20098;-72
2023/10/15 05:22:08;;;;;;;9.13;2.97;;;7.30;99.90;;;;;;5009626;28;20745;-72
2023/10/15 05:24:35;;;;;;;8.13;3.83;;;7.30;99.90;;;;;;5025581;28;20065;-70
2023/10/15 05:27:00;;;;;;;12.35;3.10;;;7.30;99.90;;;;;;5028957;28;20029;-73
2023/10/15 05:29:26;;;;;;;6.53;2.92;;;7.30;99.90;;;;;;5029225;28;20029;-71
2023/10/15 05:31:53;;;;;;;12.90;3.05;;;7.30;99.90;;;;;;5028364;28;20536;-71
2023/10/15 05:34:20;;;;;;;7.80;2.83;;;7.30;99.90;;;;;;5028383;28;20042;-70
2023/10/15 05:36:45;;;;;;;10.93;2.92;;;7.30;99.90;;;;;;5027590;28;20041;-71
2023/10/15 05:39:15;;;;;;;8.27;2.90;;;7.40;99.90;;;;;;5029029;28;20551;-71
2023/10/15 05:41:44;;;;;;;14.23;3.22;;;7.30;99.90;;;;;;5028383;28;20033;-71
2023/10/15 05:44:10;;;;;;;10.68;2.97;;;7.30;99.90;;;;;;5028993;28;20444;-73
2023/10/15 05:46:35;;;;;;;11.82;3.05;;;7.30;99.90;;;;;;5027672;28;20025;-70
2023/10/15 05:49:01;;;;;;;7.43;3.10;;;7.40;99.90;;;;;;5028630;28;20454;-71
2023/10/15 05:51:27;;;;;;;9.43;3.08;;;7.30;99.90;;;;;;5010919;28;20036;-72
2023/10/15 05:53:54;;;;;;;6.80;2.90;;;7.20;99.90;;;;;;5027882;28;20064;-72
2023/10/15 05:56:21;;;;;;;7.18;3.25;;;7.10;99.90;;;;;;5026207;28;20026;-72
2023/10/15 05:58:47;;;;;;;9.20;3.17;;;7.10;99.90;;;;;;5010349;28;20033;-71
2023/10/15 06:01:14;;;;;;;10.30;3.13;;;7.20;99.90;;;;;;5028520;28;20037;-72
2023/10/15 06:03:41;;;;;;;11.52;3.03;;;7.20;99.90;;;;;;5026527;28;20037;-72
2023/10/15 06:06:06;;;;;;;12.43;3.40;;;7.20;99.90;;;;;;5020230;28;20061;-71
2023/10/15 06:08:32;;;;;;;8.48;3.10;;;7.20;99.90;;;;;;5009386;28;20467;-72
2023/10/15 06:10:58;;;;;;;7.00;3.05;;;7.10;99.90;;;;;;5018766;28;20021;-71
2023/10/15 06:13:23;;;;;;;10.27;3.28;;;7.10;99.90;;;;;;5019152;28;20038;-72
2023/10/15 06:15:51;;;;;;;10.43;3.45;;;7.10;99.90;;;;;;5020453;28;20029;-70
2023/10/15 06:18:32;;;;;;;8.63;3.38;;;7.10;99.90;;;;;;5120112;27;20165;-72
2023/10/15 06:20:59;;;;;;;11.57;3.45;;;7.10;99.90;;;;;;5099978;28;20105;-72
2023/10/15 06:23:25;;;;;;;6.93;3.03;;;7.10;99.90;;;;;;5087147;28;20054;-71
2023/10/15 06:25:51;;;;;;;6.93;3.30;;;7.10;99.90;;;;;;5099652;28;20057;-72
2023/10/15 06:28:17;;;;;;;11.50;3.38;;;7.10;99.90;;;;;;5088776;28;20028;-71
2023/10/15 06:30:43;;;;;;;8.07;3.65;;;7.10;99.90;;;;;;5088719;28;20020;-71
2023/10/15 06:33:09;;;;;;;10.05;4.07;;;7.20;99.90;;;;;;5102206;28;20024;-73
2023/10/15 06:35:35;;;;;;;15.13;3.63;;;7.20;99.90;;;;;;5108434;28;20022;-72
2023/10/15 06:38:01;;;;;;;20.02;4.45;;;7.20;99.90;;;;;;5102424;28;20127;-72
2023/10/15 06:40:28;;;;;;;9.88;3.70;;;7.20;99.90;;;;;;5105683;28;20047;-72
2023/10/15 06:43:00;;;;;;;10.57;3.50;;;7.30;99.90;;;;;;5101864;28;20042;-72
2023/10/15 06:45:27;;;;;;;8.43;3.47;;;7.30;99.90;;;;;;5095027;28;20045;-72
2023/10/15 06:47:53;;;;;;;11.32;3.78;;;7.30;99.90;;;;;;5100086;28;20093;-72
2023/10/15 06:50:19;;;;;;;14.05;3.97;;;7.40;99.90;;;;;;5105483;28;20384;-72
2023/10/15 06:52:46;;;;;;;10.43;3.70;;;7.40;99.90;;;;;;5103338;28;20028;-72
2023/10/15 06:55:13;;;;;;;9.80;3.78;;;7.40;99.90;;;;;;5105022;28;20120;-72
2023/10/15 06:57:39;;;;;;;8.75;3.45;;;7.40;99.90;;;;;;5095836;28;20054;-71
2023/10/15 07:00:12;;;;;;;11.18;3.67;;;7.40;99.90;;;;;;5104077;28;20071;-72
2023/10/15 07:02:38;;;;;;;11.82;3.70;;;7.40;99.90;;;;;;5103583;27;20515;-71
2023/10/15 07:05:05;;;;;;;9.63;3.70;;;7.40;99.90;;;;;;5101726;28;20031;-72
2023/10/15 07:07:33;;;;;;;10.13;3.78;;;7.40;99.90;;;;;;5098547;28;20107;-72
2023/10/15 07:10:06;;;;;;;9.90;3.47;;;7.40;99.90;;;;;;5103849;28;20033;-73
2023/10/15 07:12:32;;;;;;;10.60;3.40;;;7.50;99.90;;;;;;5104372;28;20024;-72
2023/10/15 07:14:58;;;;;;;9.65;4.15;;;7.50;99.90;;;;;;5103133;28;20364;-72
2023/10/15 07:17:24;;;;;;;12.38;3.67;;;7.60;99.90;;;;;;5099398;28;20147;-72
2023/10/15 07:19:49;;;;;;;9.00;3.53;;;7.60;99.90;;;;;;5101944;28;20106;-71
2023/10/15 07:22:15;;;;;;;8.63;3.42;;;7.60;99.90;;;;;;5103944;28;20103;-72
2023/10/15 07:24:41;;;;;;;10.70;3.55;;;7.60;99.90;;;;;;5104256;28;20441;-71
2023/10/15 07:27:06;;;;;;;10.40;3.75;;;7.70;99.90;;;;;;5097062;28;20028;-72
2023/10/15 07:29:32;;;;;;;8.75;3.15;;;7.80;99.90;;;;;;5076664;28;20028;-72
2023/10/15 07:31:59;;;;;;;15.45;3.50;;;7.90;99.90;;;;;;5086822;28;20746;-71
2023/10/15 07:34:24;;;;;;;13.23;3.63;;;7.80;99.90;;;;;;5090798;28;20023;-71
2023/10/15 07:36:51;;;;;;;11.13;3.13;;;7.90;99.90;;;;;;5088974;28;20036;-72
2023/10/15 07:39:17;;;;;;;7.68;3.38;;;7.90;99.90;;;;;;5090048;28;20057;-71
2023/10/15 07:41:43;;;;;;;12.00;3.75;;;7.90;99.90;;;;;;5090104;28;20717;-70
2023/10/15 07:44:10;;;;;;;11.25;4.10;;;7.90;99.90;;;;;;5087490;28;20070;-72
2023/10/15 07:46:36;;;;;;;17.58;3.90;;;7.80;99.90;;;;;;5087771;28;20028;-72
2023/10/15 07:49:03;;;;;;;10.80;3.80;;;7.80;99.90;;;;;;5090060;28;20025;-71
2023/10/15 07:51:29;;;;;;;14.30;4.97;;;7.80;99.90;;;;;;5090193;28;20082;-72
2023/10/15 07:53:55;;;;;;;16.77;5.13;;;7.80;99.90;;;;;;5089433;28;20073;-71
2023/10/15 07:56:21;;;;;;;11.15;4.50;;;7.80;99.90;;;;;;5089411;28;20079;-72
2023/10/15 07:58:48;;;;;;;17.50;4.95;;;7.90;99.90;;;;;;5088599;28;20053;-72
2023/10/15 08:01:14;;;;;;;12.98;4.70;;;7.90;99.90;;;;;;5081420;28;20028;-71
2023/10/15 08:03:40;;;;;;;13.88;4.80;;;8.10;99.90;;;;;;5089731;28;20032;-72
2023/10/15 08:06:07;;;;;;;11.95;4.82;;;8.30;99.90;;;;;;5087399;28;20055;-73
2023/10/15 08:08:33;;;;;;;13.30;4.72;;;8.20;99.90;;;;;;5082697;28;20460;-72
2023/10/15 08:10:58;;;;;;;15.75;5.63;;;8.20;99.90;;;;;;5076106;28;20058;-72
2023/10/15 08:13:24;;;;;;;15.02;4.57;;;8.30;99.90;;;;;;5089303;28;20028;-72
2023/10/15 08:15:50;;;;;;;12.95;5.68;;;8.40;99.90;;;;;;5089833;28;20028;-70
2023/10/15 08:18:15;;;;;;;15.27;5.05;;;8.40;99.90;;;;;;5088987;28;20705;-72
2023/10/15 08:20:41;;;;;;;15.93;5.38;;;8.50;99.90;;;;;;5092971;28;20032;-72
2023/10/15 08:23:07;;;;;;;15.23;5.45;;;8.50;99.90;;;;;;5089866;28;20020;-72
2023/10/15 08:25:33;;;;;;;13.65;5.47;;;8.50;99.90;;;;;;5094572;28;20055;-71
2023/10/15 08:27:58;;;;;;;14.15;4.82;;;8.60;99.90;;;;;;5104856;28;20043;-72
2023/10/15 08:30:24;;;;;;;10.52;4.68;;;8.50;99.90;;;;;;5090335;28;20049;-72
2023/10/15 08:32:50;;;;;;;17.67;4.90;;;8.50;99.90;;;;;;5090953;28;20027;-73
2023/10/15 08:35:16;;;;;;;21.48;4.88;;;8.60;99.90;;;;;;5091089;28;20035;-72
2023/10/15 08:37:45;;;;;;;12.00;4.72;;;8.60;99.90;;;;;;5091034;28;20101;-72
2023/10/15 08:40:15;;;;;;;14.07;5.43;;;8.60;99.90;;;;;;5088949;28;20058;-75
2023/10/15 08:42:56;;;;;;;18.43;5.50;;;8.50;99.90;;;;;;5091051;28;20059;-73
2023/10/15 08:45:23;;;;;;;19.30;6.07;;;8.60;99.90;;;;;;5090439;28;20281;-72
2023/10/15 08:47:51;;;;;;;13.60;6.10;;;8.60;99.90;;;;;;5089515;28;20039;-71
2023/10/15 08:50:21;;;;;;;16.92;6.05;;;8.60;99.90;;;;;;5089216;28;20368;-72
2023/10/15 08:52:57;;;;;;;21.08;7.60;;;8.60;99.90;;;;;;5089732;28;20024;-70
2023/10/15 08:55:24;;;;;;;20.35;7.78;;;8.50;99.90;;;;;;5088404;28;20175;-72
2023/10/15 08:57:56;;;;;;;16.45;7.03;;;8.40;99.90;;;;;;5089275;28;20104;-71
2023/10/15 09:00:25;;;;;;;17.38;6.97;;;8.30;99.90;;;;;;5090001;28;20024;-72
2023/10/15 09:02:56;;;;;;;19.92;7.05;;;8.20;99.90;;;;;;5087679;28;20085;-71
2023/10/15 09:05:22;;;;;;;20.88;7.95;;;8.40;99.90;;;;;;5089921;28;20070;-72
2023/10/15 09:07:51;;;;;;;21.30;7.20;;;8.70;99.90;;;;;;5088504;28;20105;-71
2023/10/15 09:10:17;;;;;;;19.25;7.57;;;8.90;99.90;;;;;;5085546;28;20073;-72
2023/10/15 09:12:43;;;;;;;17.88;8.38;;;9.20;99.90;;;;;;5087630;28;20468;-73
2023/10/15 09:15:19;;;;;;;18.75;7.45;;;9.60;99.90;;;;;;5088051;28;20024;-73
2023/10/15 09:17:59;;;;;;;16.48;7.35;;;10.00;99.90;;;;;;5087522;28;20480;-73
2023/10/15 09:20:32;;;;;;;15.70;7.47;;;10.10;99.90;;;;;;5089575;28;20020;-72
2023/10/15 09:22:59;;;;;;;20.17;6.60;;;10.30;99.90;;;;;;5073281;28;20266;-73
2023/10/15 09:25:26;;;;;;;12.80;5.25;;;10.50;99.90;;;;;;5088794;28;20028;-73
2023/10/15 09:27:56;;;;;;;15.52;6.10;;;10.50;99.90;;;;;;5088468;28;20032;-73
2023/10/15 09:30:26;;;;;;;22.48;5.90;;;10.20;99.90;;;;;;5084120;28;20034;-72
2023/10/15 09:32:52;;;;;;;14.43;5.93;;;10.10;99.90;;;;;;5091822;28;20062;-73
2023/10/15 09:35:20;;;;;;;10.55;5.30;;;10.30;99.90;;;;;;5089933;28;20028;-72
2023/10/15 09:37:46;;;;;;;14.48;6.03;;;10.40;99.90;;;;;;5086182;28;20047;-73
2023/10/15 09:40:23;;;;;;;13.27;5.68;;;10.30;99.90;;;;;;5075919;28;20063;-72
2023/10/15 09:42:55;;;;;;;15.38;4.43;;;10.20;99.90;;;;;;5089486;28;20031;-70
2023/10/15 09:45:24;;;;;;;8.30;4.60;;;10.00;99.90;;;;;;5086657;28;20032;-73
2023/10/15 09:47:52;;;;;;;10.50;3.80;;;9.90;99.90;;;;;;5092856;28;20144;-72
2023/10/15 09:50:24;;;;;;;8.43;3.95;;;9.80;99.90;;;;;;5085536;28;20016;-73
2023/10/15 09:53:01;;;;;;;16.15;4.10;;;9.90;99.90;;;;;;5088313;28;20016;-72
2023/10/15 09:55:31;;;;;;;11.73;3.15;;;10.30;99.90;;;;;;5089029;28;20035;-72
2023/10/15 09:57:58;;;;;;;7.82;2.85;;;10.60;99.90;;;;;;5088326;28;20035;-73
2023/10/15 10:00:46;;;;;;;7.85;2.97;;;11.00;99.90;;;;;;5088941;28;20051;-72
2023/10/15 10:03:37;;;;;;;8.50;3.13;;;11.10;99.90;;;;;;5087819;28;20094;-73
2023/10/15 10:06:22;;;;;;;7.53;2.75;;;11.00;99.90;;;;;;5098276;28;20460;-73
2023/10/15 10:09:09;;;;;;;9.15;2.65;;;10.80;99.90;;;;;;5088058;28;20123;-72
2023/10/15 10:11:47;;;;;;;10.90;3.15;;;10.40;99.90;;;;;;5088528;28;20034;-74
2023/10/15 10:14:23;;;;;;;9.15;3.20;;;10.10;99.90;;;;;;5088169;28;20024;-73
2023/10/15 10:16:49;;;;;;;12.20;3.20;;;10.10;99.90;;;;;;5086523;28;20083;-71
2023/10/15 10:19:17;;;;;;;8.75;3.42;;;10.20;99.90;;;;;;5089326;28;20046;-72
2023/10/15 10:21:46;;;;;;;14.02;3.65;;;10.10;99.90;;;;;;5088074;28;20060;-73
2023/10/15 10:24:12;;;;;;;9.52;2.95;;;10.00;99.90;;;;;;5087484;28;20256;-72
2023/10/15 10:26:42;;;;;;;6.18;2.60;;;10.00;99.90;;;;;;5088353;28;20519;-72
2023/10/15 10:29:11;;;;;;;8.90;2.72;;;9.90;99.90;;;;;;5087563;28;20093;-73
2023/10/15 10:31:39;;;;;;;7.93;2.67;;;10.00;99.90;;;;;;5089184;28;20028;-73
2023/10/15 10:34:05;;;;;;;8.00;2.70;;;9.90;99.90;;;;;;5087211;28;20074;-73
2023/10/15 10:36:37;;;;;;;10.50;2.40;;;10.10;99.90;;;;;;5088203;28;20040;-73
2023/10/15 10:39:13;;;;;;;5.57;1.88;;;10.40;99.90;;;;;;5087268;28;20024;-72
2023/10/15 10:41:59;;;;;;;4.80;1.58;;;10.80;99.90;;;;;;5086270;28;20032;-72
2023/10/15 10:44:24;;;;;;;6.68;1.83;;;11.10;99.90;;;;;;5088421;28;20027;-72
2023/10/15 10:46:54;;;;;;;4.75;1.30;;;11.10;99.90;;;;;;5083166;28;20032;-72
2023/10/15 10:49:30;;;;;;;3.38;1.00;;;11.30;99.90;;;;;;5084271;28;20031;-72
2023/10/15 10:52:19;;;;;;;4.75;0.60;;;11.10;99.90;;;;;;5085535;28;20081;-72
2023/10/15 10:54:48;;;;;;;2.72;0.90;;;10.90;99.90;;;;;;5099704;28;20028;-72
2023/10/15 10:57:18;;;;;;;5.72;1.17;;;10.70;99.90;;;;;;5076906;28;20036;-72
2023/10/15 10:59:43;;;;;;;7.22;1.15;;;10.50;99.90;;;;;;5087773;28;20032;-72
2023/10/15 11:02:16;;;;;;;2.80;0.85;;;10.50;99.90;;;;;;5085687;28;20024;-72
2023/10/15 11:04:42;;;;;;;5.63;1.00;;;10.60;99.90;;;;;;5081415;28;20137;-72
2023/10/15 11:07:10;;;;;;;5.50;1.10;;;11.00;99.90;;;;;;5089604;28;20033;-72
2023/10/15 11:09:39;;;;;;;5.57;1.08;;;11.30;99.90;;;;;;5091313;28;20028;-73
2023/10/15 11:12:12;;;;;;;6.22;1.30;;;11.50;99.90;;;;;;5071276;28;20104;-73
2023/10/15 11:14:39;;;;;;;3.90;1.15;;;11.10;99.90;;;;;;5083287;28;20036;-73
2023/10/15 11:17:06;;;;;;;4.88;1.00;;;10.90;99.90;;;;;;5088985;28;20145;-72
2023/10/15 11:19:35;;;;;;;5.35;1.00;;;11.00;99.90;;;;;;5090437;28;20841;-72
2023/10/15 11:22:01;;;;;;;6.25;1.08;;;10.70;99.90;;;;;;5089703;28;20072;-72
2023/10/15 11:24:27;;;;;;;5.95;1.27;;;10.60;99.90;;;;;;5091120;28;20038;-72
2023/10/15 11:26:58;;;;;;;6.57;1.17;;;11.10;99.90;;;;;;5089042;28;20479;-71
2023/10/15 11:29:24;;;;;;;6.47;1.20;;;11.30;99.90;;;;;;5090255;28;20103;-72
2023/10/15 11:31:56;;;;;;;6.65;1.10;;;11.20;99.90;;;;;;5090824;28;20519;-72
2023/10/15 11:34:24;;;;;;;7.93;1.15;;;11.30;99.90;;;;;;5089063;28;20028;-72
2023/10/15 11:36:52;;;;;;;4.35;0.90;;;11.40;99.90;;;;;;5089283;28;20432;-71
2023/10/15 11:39:25;;;;;;;6.18;0.95;;;11.80;99.90;;;;;;5089237;28;20840;-71
2023/10/15 11:41:52;;;;;;;6.88;1.17;;;11.60;99.90;;;;;;5090359;28;20061;-73
2023/10/15 11:44:26;;;;;;;4.55;1.00;;;11.70;99.90;;;;;;5080655;28;20024;-73
2023/10/15 11:46:55;;;;;;;3.45;0.90;;;11.90;99.90;;;;;;5090749;28;20040;-72
2023/10/15 11:49:23;;;;;;;5.43;0.70;;;12.00;99.90;;;;;;5077548;28;20372;-72
2023/10/15 11:51:55;;;;;;;7.72;0.90;;;12.00;99.90;;;;;;5089895;28;20032;-72
2023/10/15 11:54:23;;;;;;;4.60;1.02;;;11.90;99.90;;;;;;5088519;28;20028;-72
2023/10/15 11:56:50;;;;;;;2.90;0.88;;;12.00;99.90;;;;;;5078462;28;20043;-72
2023/10/15 11:59:16;;;;;;;4.25;1.10;;;11.90;99.90;;;;;;5087989;28;20476;-73
2023/10/15 12:01:44;;;;;;;5.13;1.02;;;11.40;99.90;;;;;;5090543;28;20028;-73
2023/10/15 12:04:11;;;;;;;4.20;0.93;;;11.10;99.90;;;;;;5088524;28;20096;-72
2023/10/15 12:06:38;;;;;;;6.85;1.02;;;11.00;99.90;;;;;;5088914;28;20054;-73
2023/10/15 12:09:12;;;;;;;5.30;1.10;;;11.40;99.90;;;;;;5088584;28;20032;-71
2023/10/15 12:11:39;;;;;;;9.02;1.48;;;11.40;99.90;;;;;;5093886;28;20028;-73
2023/10/15 12:14:05;;;;;;;5.72;1.20;;;11.50;99.90;;;;;;5069828;28;20103;-74
2023/10/15 12:16:31;;;;;;;7.78;0.88;;;11.80;99.90;;;;;;5072416;28;20377;-73
2023/10/15 12:18:56;;;;;;;3.05;0.95;;;12.10;99.90;;;;;;5088636;28;20028;-70
2023/10/15 12:21:22;;;;;;;2.90;0.60;;;12.30;99.90;;;;;;5089826;28;20488;-72
2023/10/15 12:23:48;;;;;;;3.00;0.80;;;12.00;99.90;;;;;;5090500;28;20525;-73
2023/10/15 12:26:13;;;;;;;4.90;0.52;;;11.40;99.90;;;;;;5089594;28;20035;-73
2023/10/15 12:28:47;;;;;;;5.43;1.33;;;10.90;99.90;;;;;;5089931;28;20016;-74
2023/10/15 12:31:13;;;;;;;5.07;0.60;;;10.40;99.90;;;;;;5089286;28;20028;-73
2023/10/15 12:33:39;;;;;;;35.92;12.95;;;10.20;99.90;;;;;;5090041;28;20496;-70
2023/10/15 12:36:09;;;;;;;12.02;4.43;;;10.10;99.90;;;;;;5089629;28;20031;-73
2023/10/15 12:38:35;;;;;;;10.82;4.15;;;10.10;99.90;;;;;;5090335;28;20027;-73
2023/10/15 12:41:01;;;;;;;4.65;0.85;;;10.20;99.90;;;;;;5089615;28;20028;-71
2023/10/15 12:43:26;;;;;;;3.85;0.52;;;10.10;99.90;;;;;;5089540;28;20028;-72
2023/10/15 12:45:53;;;;;;;4.65;0.65;;;10.10;99.90;;;;;;5090369;28;20154;-71
2023/10/15 12:48:20;;;;;;;4.15;0.90;;;10.60;99.90;;;;;;5089454;28;20036;-73
2023/10/15 12:50:52;;;;;;;3.15;0.70;;;10.90;99.90;;;;;;5089685;28;20668;-73
2023/10/15 12:53:18;;;;;;;4.32;0.70;;;11.20;99.90;;;;;;5089128;28;20020;-70
2023/10/15 12:55:44;;;;;;;3.15;0.60;;;11.30;99.90;;;;;;5089981;28;20052;-73
2023/10/15 12:58:10;;;;;;;3.92;0.98;;;11.60;99.90;;;;;;5089159;28;20071;-73
2023/10/15 13:00:48;;;;;;;3.42;0.80;;;11.70;99.90;;;;;;5090294;28;20028;-72
2023/10/15 13:03:16;;;;;;;2.72;0.88;;;12.00;99.90;;;;;;5088866;28;20027;-72
2023/10/15 13:05:41;;;;;;;3.88;0.88;;;12.10;99.90;;;;;;5089454;28;20039;-73
2023/10/15 13:08:07;;;;;;;4.50;0.77;;;11.80;99.90;;;;;;5089181;28;20024;-73
2023/10/15 13:10:33;;;;;;;5.30;0.73;;;11.80;99.90;;;;;;5090084;28;20758;-74